Latest Coastal Weather Observations for Evans Head

IDN60701

Issued at 4:21 pm EDT Friday 20 October 2017 (issued every 10 minutes, with the page automatically refreshed every 10 minutes)

About coastal observations | Map of coastal stations | Coastal observations for NSW | Marine services | Other Formats
Station Details ID: 058212 Name: EVANS HEAD RAAF BOMBING RANGE AWS Lat: -29.18 Lon: 153.40 Height: 62.5 m
Data from the previous 72 hours. | See also: Recent months at Evans Head
Date/Time
EDT
Temp
°C
Wind Pressure Rain since
9am
mm
Weather Cloud Vis
km
Sea
Height
m
Swell
Dir  Spd
kts
Gust
kts
hPa Trend Height
m
Period
s
Dir
20/04:00pm 25.6 NNE 14 23 1015.5 - 0.0 - - - - - - -
20/03:30pm 24.9 NNE 16 23 1016.0 - 0.0 - - - - - - -
20/03:00pm 25.8 NNE 13 21 1016.6 - 0.0 - - - - - - -
20/02:30pm 25.8 NNE 12 19 1017.3 - 0.0 - - - - - - -
20/02:00pm 25.1 NE 14 19 1017.9 - 0.0 - - - - - - -
20/01:30pm 27.0 NNE 11 18 1018.4 - 0.0 - - - - - - -
20/01:00pm 25.3 NE 9 16 1018.7 - 0.0 - - - - - - -
20/12:30pm 29.3 N 9 16 1019.1 - 0.0 - - - - - - -
20/12:00pm 27.4 N 9 15 1019.7 - 0.0 - - - - - - -
20/11:30am 28.0 NNW 9 14 1020.2 - 0.0 - - - - - - -
20/11:00am 27.7 NNW 8 13 1020.5 - 0.0 - - - - - - -
20/10:30am 26.0 N 7 13 1020.8 - 0.0 - - - - - - -
20/10:00am 25.5 N 8 14 1021.1 - 0.0 - - - - - - -
20/09:30am 24.7 N 7 11 1021.4 - 0.0 - - - - - - -
20/09:00am 23.0 NNW 8 13 1021.3 - 0.0 - - - - - - -
20/08:30am 21.9 NNW 7 10 1021.2 - 0.0 - - - - - - -
20/08:00am 19.9 NNW 5 8 1021.4 - 0.0 - - - - - - -
20/07:30am 17.7 NNW 3 4 1021.5 - 0.0 - - - - - - -
20/07:00am 16.1 NNW 4 5 1021.4 - 0.0 - - - - - - -
20/06:30am 15.4 NNW 5 7 1021.2 - 0.0 - - - - - - -
20/06:00am 15.2 NNW 5 7 1020.9 - 0.0 - - - - - - -
20/05:30am 15.4 NNW 6 7 1020.8 - 0.0 - - - - - - -
20/05:00am 15.7 NNW 5 6 1020.6 - 0.0 - - - - - - -
20/04:30am 16.0 NNW 4 5 1020.9 - 0.0 - - - - - - -
20/04:00am 16.2 NNW 5 6 1021.1 - 0.0 - - - - - - -
20/03:30am 16.1 NNW 5 7 1021.5 - 0.0 - - - - - - -
20/03:00am 16.4 NNW 5 6 1021.8 - 0.0 - - - - - - -
20/02:30am 16.6 N 5 6 1022.1 - 0.0 - - - - - - -
20/02:00am 16.9 NNW 5 7 1022.4 - 0.0 - - - - - - -
20/01:30am 17.2 N 7 8 1022.7 - 0.0 - - - - - - -
20/01:00am 17.5 N 7 10 1023.1 - 0.0 - - - - - - -
20/12:30am 17.4 N 7 8 1023.5 - 0.0 - - - - - - -
20/12:00am 17.5 N 6 8 1023.8 - 0.0 - - - - - - -
 
Date/Time
EDT
Temp
°C
Wind Pressure Rain since
9am
mm
Weather Cloud Vis
km
Sea
Height
m
Swell
Dir  Spd
kts
Gust
kts
hPa Trend Height
m
Period
s
Dir
19/11:30pm 17.9 N 7 9 1024.0 - 0.0 - - - - - - -
19/11:00pm 18.3 N 6 8 1024.2 - 0.0 - - - - - - -
19/10:30pm 18.8 NNE 8 12 1024.3 - 0.0 - - - - - - -
19/10:00pm 18.9 N 9 12 1024.4 - 0.0 - - - - - - -
19/09:30pm 18.9 NNE 8 12 1024.4 - 0.0 - - - - - - -
19/09:00pm 18.9 NNE 8 11 1024.4 - 0.0 - - - - - - -
19/08:30pm 18.7 N 8 10 1024.3 - 0.0 - - - - - - -
19/08:00pm 18.9 NNE 7 10 1024.2 - 0.0 - - - - - - -
19/07:30pm 19.2 NNE 7 9 1024.1 - 0.0 - - - - - - -
19/07:00pm 19.7 NNE 6 9 1023.9 - 0.0 - - - - - - -
19/06:30pm 20.7 NE 7 12 1023.8 - 0.0 - - - - - - -
19/06:00pm 21.3 ENE 10 14 1023.7 - 0.0 - - - - - - -
19/05:30pm 21.9 NE 9 15 1023.5 - 0.0 - - - - - - -
19/05:00pm 22.3 ENE 11 16 1023.5 - 0.0 - - - - - - -
19/04:30pm 22.5 ENE 11 17 1023.5 - 0.0 - - - - - - -
19/04:00pm 22.6 ENE 11 17 1023.7 - 0.0 - - - - - - -
19/03:30pm 22.7 ENE 12 18 1024.0 - 0.0 - - - - - - -
19/03:00pm 22.9 ENE 12 18 1024.3 - 0.0 - - - - - - -
19/02:30pm 23.9 E 13 18 1024.7 - 0.0 - - - - - - -
19/02:00pm 24.6 ENE 11 17 1025.0 - 0.0 - - - - - - -
19/01:30pm 23.4 ENE 13 17 1025.3 - 0.0 - - - - - - -
19/01:00pm 23.6 ENE 13 17 1025.6 - 0.0 - - - - - - -
19/12:30pm 24.6 ENE 10 15 1025.8 - 0.0 - - - - - - -
19/12:00pm 23.2 ENE 13 17 1026.2 - 0.0 - - - - - - -
19/11:30am 24.3 ENE 12 17 1026.3 - 0.0 - - - - - - -
19/11:00am 23.4 ENE 11 19 1026.5 - 0.0 - - - - - - -
19/10:30am 23.7 ENE 11 17 1026.7 - 0.0 - - - - - - -
19/10:00am 23.2 ENE 12 16 1026.9 - 0.0 - - - - - - -
19/09:30am 23.1 ENE 10 15 1027.1 - 0.0 - - - - - - -
19/09:00am 22.9 ENE 10 15 1026.9 - 0.8 - - - - - - -
19/08:30am 22.1 ENE 9 16 1026.6 - - - - - - - - -
19/08:00am 21.8 NNE 5 9 1026.5 - - - - - - - - -
19/07:30am 21.3 NE 6 10 1026.5 - - - - - - - - -
19/07:00am 20.9 ENE 9 13 1026.4 - - - - - - - - -
19/06:30am 19.1 NE 6 10 1026.0 - - - - - - - - -
19/06:00am 18.7 NE 6 9 1025.8 - - - - - - - - -
19/05:30am 18.9 NE 6 8 1025.7 - - - - - - - - -
19/05:00am 19.0 NNE 5 8 1025.6 - - - - - - - - -
19/04:30am 18.9 NE 6 9 1025.5 - - - - - - - - -
19/04:00am 19.1 NE 7 10 1025.4 - - - - - - - - -
19/03:30am 18.9 NE 5 8 1025.7 - - - - - - - - -
19/03:00am 18.7 NNE 5 8 1025.7 - 0.0 - - - - - - -
19/02:30am 18.7 NNE 6 9 1026.1 - - - - - - - - -
19/02:00am 19.0 NE 6 9 1026.3 - - - - - - - - -
19/01:30am 19.6 NE 8 12 1026.8 - - - - - - - - -
19/01:00am 19.8 ENE 8 12 1027.2 - - - - - - - - -
19/12:30am 19.7 ENE 9 13 1027.4 - - - - - - - - -
19/12:00am 19.9 ENE 8 11 1027.7 - - - - - - - - -
 
Date/Time
EDT
Temp
°C
Wind Pressure Rain since
9am
mm
Weather Cloud Vis
km
Sea
Height
m
Swell
Dir  Spd
kts
Gust
kts
hPa Trend Height
m
Period
s
Dir
18/11:30pm 20.1 ENE 11 14 1027.8 - - - - - - - - -
18/11:00pm 20.1 E 10 14 1027.8 - - - - - - - - -
18/10:30pm 20.1 ENE 10 16 1027.6 - - - - - - - - -
18/10:00pm 20.1 E 12 18 1027.6 - - - - - - - - -
18/09:30pm 20.0 ENE 11 15 1027.5 - - - - - - - - -
18/09:00pm 20.0 E 10 15 1027.3 - 0.4 - - - - - - -
18/08:30pm 20.1 E 11 16 1027.1 - - - - - - - - -
18/08:00pm 19.9 E 12 17 1026.5 - - - - - - - - -
18/07:30pm 19.9 ESE 12 16 1026.3 - - - - - - - - -
18/07:00pm 19.9 E 12 17 1026.0 - - - - - - - - -
18/06:30pm 19.9 E 9 13 1025.9 - - - - - - - - -
18/06:00pm 20.1 E 13 18 1025.7 - - - - - - - - -
18/05:30pm 19.9 SE 9 13 1025.6 - - - - - - - - -
18/05:00pm 20.2 ESE 14 17 1025.5 - - - - - - - - -
18/04:30pm 20.2 ESE 12 17 1025.3 - - - - - - - - -
18/04:00pm 19.3 ESE 7 9 1025.5 - - - - - - - - -
18/03:30pm 19.9 SE 14 18 1025.8 - - - - - - - - -
18/03:00pm 20.3 ESE 15 20 1026.1 - 0.4 - - - - - - -
18/02:30pm 21.3 ESE 15 19 1026.2 - - - - - - - - -
18/02:00pm 21.7 ESE 17 22 1026.3 - - - - - - - - -
18/01:30pm 21.2 ESE 15 19 1026.7 - - - - - - - - -
18/01:00pm 19.7 ESE 16 22 1026.9 - - - - - - - - -
18/12:50pm 19.8 E 11 21 1027.1 - - - - - - - - -
18/12:30pm 18.3 E 6 11 1027.2 - - - - - - - - -
18/12:00pm 19.7 E 14 21 1027.4 - - - - - - - - -
18/11:30am 20.5 ESE 15 21 1027.5 - - - - - - - - -
18/11:00am 19.9 E 14 21 1027.6 - - - - - - - - -
18/10:00am 20.5 E 16 23 1027.4 - - - - - - - - -
18/09:30am 20.7 ESE 16 25 1027.1 - - - - - - - - -
18/09:00am 20.4 ESE 17 23 1026.6 - 0.6 - - - - - - -
18/08:30am 20.3 ESE 13 19 1026.4 - - - - - - - - -
18/08:00am 19.3 ESE 13 19 1026.2 - - - - - - - - -
18/07:30am 18.4 ESE 12 19 1026.0 - - - - - - - - -
18/07:00am 17.6 SE 12 16 1025.9 - 0.4 - - - - - - -
18/06:30am 18.2 ESE 18 26 1025.3 - 0.0 - - - - - - -
18/06:22am 19.0 ESE 15 26 1025.1 - 0.0 - - - - - - -
18/06:00am 19.2 ESE 15 23 1024.8 - 0.0 - - - - - - -
18/05:30am 18.7 SE 13 23 1024.4 - 0.0 - - - - - - -
18/05:00am 18.7 SE 15 22 1024.2 - 0.0 - - - - - - -
18/04:30am 19.1 ESE 13 20 1024.2 - 0.0 - - - - - - -
18/04:00am 19.2 ESE 10 18 1024.3 - 0.0 - - - - - - -
18/03:30am 19.2 ESE 16 23 1024.2 - 0.0 - - - - - - -
18/03:00am 19.0 ESE 14 21 1024.3 - 0.0 - - - - - - -
18/02:30am 19.6 ESE 13 17 1024.4 - 0.0 - - - - - - -
18/02:00am 19.4 SE 11 16 1024.8 - 0.0 - - - - - - -
18/01:30am 18.4 SE 13 19 1025.3 - 0.0 - - - - - - -
18/01:00am 19.7 ESE 14 17 1025.4 - 0.0 - - - - - - -
18/12:30am 19.6 ESE 13 17 1025.8 - 0.0 - - - - - - -
18/12:00am 19.7 ESE 13 17 1025.9 - 0.0 - - - - - - -
 
Date/Time
EDT
Temp
°C
Wind Pressure Rain since
9am
mm
Weather Cloud Vis
km
Sea
Height
m
Swell
Dir  Spd
kts
Gust
kts
hPa Trend Height
m
Period
s
Dir
17/11:30pm 19.7 ESE 12 17 1025.9 - 0.0 - - - - - - -
17/11:00pm 20.0 ESE 14 18 1025.6 - 0.0 - - - - - - -
17/10:30pm 20.0 ESE 16 22 1025.6 - 0.0 - - - - - - -
17/10:00pm 20.0 ESE 15 18 1025.7 - 0.0 - - - - - - -
17/09:30pm 20.0 ESE 16 21 1025.6 - 0.0 - - - - - - -
17/09:00pm 20.1 ESE 15 19 1025.4 - 0.0 - - - - - - -
17/08:30pm 20.1 ESE 15 20 1025.1 - 0.0 - - - - - - -
17/08:00pm 20.1 ESE 15 20 1024.8 - 0.0 - - - - - - -
17/07:30pm 20.1 ESE 15 21 1024.6 - 0.0 - - - - - - -
17/07:00pm 20.0 ESE 14 20 1024.4 - 0.0 - - - - - - -
17/06:30pm 20.1 ESE 12 19 1024.3 - 0.0 - - - - - - -
17/06:00pm 20.1 ESE 14 20 1023.8 - 0.0 - - - - - - -
17/05:30pm 20.1 ESE 14 20 1023.8 - 0.0 - - - - - - -
17/05:00pm 20.2 ESE 14 21 1023.5 - 0.0 - - - - - - -
17/04:30pm 20.3 ESE 14 19 1023.4 - 0.0 - - - - - - -

Other Formats:

Comma delimited format used in spreadsheet applications
http://www.bom.gov.au/fwo/IDN60701/IDN60701.94598.axf

JavaScript Object Notation format (JSON) in row-major order
http://www.bom.gov.au/fwo/IDN60701/IDN60701.94598.json